Flight Track Log - Related Links

Times and Time Zones

All times are in EDT time to prevent confusion due to time zone crossing. See the N143DE flight status page for this flight to view local times or setup timezone preferences in your user account.

Time Position Orientation Groundspeed Altitude Reporting Facility
EDT Latitude Longitude Course Direction KTS MPH feet Rate Location/Type
Sun 04:19:41 PM 32.6669 -79.9536 219° Southwest 201 231 5,600  Level Jacksonville Center
Sun 04:20:41 PM 32.6683 -80.0128 272° West 191 220 7,600 1,850 Climbing Jacksonville Center
Sun 04:21:41 PM 32.6653 -80.0719 267° West 191 220 9,300 1,450 Climbing Jacksonville Center
Sun 04:22:41 PM 32.6628 -80.1386 267° West 191 220 10,500 1,250 Climbing Jacksonville Center
Sun 04:23:00 PM 32.6723 -80.4387 262° West  Level FlightAware Approximate
Sun 04:23:41 PM 32.6619 -80.2078 269° West 201 231 11,800  Level Jacksonville Center
Sun 04:24:00 PM 32.6667 -80.5117 270° West  Level FlightAware Approximate
Sun 04:24:41 PM 32.6594 -80.2794 268° West 212 244 13,000  Level Jacksonville Center
Sun 04:25:41 PM 32.6564 -80.3414 267° West 217 250 13,800 1,000 Climbing Jacksonville Center
Sun 04:26:41 PM 32.6536 -80.4128 267° West 217 250 15,000 1,150 Climbing Jacksonville Center
Sun 04:27:41 PM 32.6531 -80.4819 269° West 217 250 16,100 1,100 Climbing Jacksonville Center
Sun 04:28:41 PM 32.6481 -80.5536 265° West 217 250 17,200 850 Climbing Jacksonville Center
Sun 04:29:41 PM 32.6472 -80.6253 269° West 217 250 17,800 750 Climbing Jacksonville Center
Sun 04:30:41 PM 32.6464 -80.6944 269° West 217 250 18,700 900 Climbing Jacksonville Center
Sun 04:31:41 PM 32.6456 -80.7658 269° West 217 250 19,600 800 Climbing Jacksonville Center
Sun 04:32:41 PM 32.6425 -80.8350 267° West 217 250 20,300 750 Climbing Jacksonville Center
Sun 04:33:41 PM 32.6394 -80.9092 267° West 217 250 21,100 800 Climbing Jacksonville Center
Sun 04:34:41 PM 32.6364 -80.9808 267° West 217 250 21,900 500 Climbing Jacksonville Center
Sun 04:35:41 PM 32.6356 -81.0622 269° West 223 257 22,100 100 Climbing Jacksonville Center
Sun 04:36:41 PM 32.6325 -81.1361 267° West 241 277 22,100  Level Jacksonville Center
Sun 04:37:41 PM 32.6294 -81.2178 267° West 246 283 22,100  Level Jacksonville Center
Sun 04:38:41 PM 32.6264 -81.3114 268° West 258 297 22,100 -29 Level Jacksonville Center
Sun 04:41:09 PM 32.6183 -81.5208 267° West 250 288 22,000 -29 Descending Atlanta Center
Sun 04:42:09 PM 32.6119 -81.6122 265° West 257 296 22,000  Level Atlanta Center
Sun 04:43:09 PM 32.6114 -81.6914 270° West 257 296 22,000 50 Level Atlanta Center
Sun 04:44:09 PM 32.6214 -81.7772 278° West 257 296 22,100  Climbing Atlanta Center
Sun 04:45:09 PM 32.6539 -81.8481 299° West 250 288 22,000 -50 Descending Atlanta Center
Sun 04:46:09 PM 32.6844 -81.9239 296° West 250 288 22,000  Level Atlanta Center
Sun 04:47:09 PM 32.7150 -82.0019 295° West 250 288 22,000  Level Atlanta Center
Sun 04:48:09 PM 32.7453 -82.0756 296° West 256 295 22,000  Level Atlanta Center
Sun 04:49:09 PM 32.7778 -82.1539 296° West 256 295 22,000  Level Atlanta Center
Sun 04:50:09 PM 32.8083 -82.2322 295° West 261 300 22,000  Level Atlanta Center
Sun 04:51:09 PM 32.8386 -82.3083 295° West 261 300 22,000 50 Level Atlanta Center
Sun 04:52:09 PM 32.8731 -82.3842 298° West 255 293 22,100 50 Climbing Atlanta Center
Sun 04:53:09 PM 32.9033 -82.4578 296° West 255 293 22,100  Level Atlanta Center
Sun 04:54:09 PM 32.9333 -82.5364 294° West 255 293 22,100 -400 Level Atlanta Center
Sun 04:55:09 PM 32.9678 -82.6178 297° West 255 293 21,300 -1,100 Descending Atlanta Center
Sun 04:56:09 PM 33.0022 -82.7039 296° West 273 314 19,900 -1,250 Descending Atlanta Center
Sun 04:57:09 PM 33.0364 -82.7900 295° West 283 326 18,800 -1,250 Descending Atlanta Center
Sun 04:58:09 PM 33.0728 -82.8761 297° West 283 326 17,400 -1,550 Descending Atlanta Center
Sun 04:59:09 PM 33.1092 -82.9675 295° West 299 344 15,700 -1,550 Descending Atlanta Center
Sun 05:00:09 PM 33.1392 -83.0564 292° West 299 344 14,300 -1,400 Descending Atlanta Center
Sun 05:01:09 PM 33.1731 -83.1428 295° West 294 338 12,900 -1,400 Descending Atlanta Center
Sun 05:02:09 PM 33.2133 -83.2269 300° West 289 333 11,500 -950 Descending Atlanta Center
Sun 05:03:09 PM 33.2453 -83.3111 294° West 284 327 11,000 -250 Descending Atlanta Center
Sun 05:04:09 PM 33.2747 -83.3803 297° West 276 318 11,000 -350 Level Atlanta Center
Sun 05:05:09 PM 33.3044 -83.4597 294° West 271 312 10,300 -900 Descending Atlanta Center
Sun 05:06:09 PM 33.3383 -83.5414 296° West 265 305 9,200 -1,000 Descending Atlanta Center
Sun 05:07:09 PM 33.3678 -83.6183 295° West 265 305 8,300 -600 Descending Atlanta Center
Sun 05:08:09 PM 33.4097 -83.6831 308° West 257 296 8,000 -118 Descending Atlanta Center
Sun 05:09:42 PM 33.5000 -83.7500 328° Northwest 242 278 8,000  Level Atlanta TRACON
Sun 05:10:42 PM 33.5500 -83.7833 331° Northwest 241 277 8,000  Level Atlanta TRACON
Sun 05:11:42 PM 33.6167 -83.8167 337° Northwest 235 270 8,000 -150 Level Atlanta TRACON
Sun 05:12:42 PM 33.6833 -83.8333 348° North 237 273 7,700 -550 Descending Atlanta TRACON
Sun 05:13:42 PM 33.7500 -83.8500 348° North 240 276 6,900 -667 Descending Atlanta TRACON
Sun 05:14:48 PM 33.8167 -83.8500 360° North 225 259 6,300 -429 Descending Atlanta TRACON
Sun 05:15:48 PM 33.8667 -83.9000 320° Northwest 244 281 6,000 -150 Descending Atlanta TRACON
Sun 05:16:48 PM 33.8833 -83.9667 287° West 216 249 6,000  Level Atlanta TRACON
Sun 05:17:42 PM 33.9000 -84.0333 287° West 219 252 6,000  Level Atlanta TRACON
Sun 05:18:48 PM 33.9167 -84.1167 284° West 222 255 6,000  Level Atlanta TRACON
Sun 05:19:42 PM 33.9167 -84.1667 270° West 222 255 6,000  Level Atlanta TRACON
Sun 05:20:48 PM 33.9333 -84.2500 284° West 222 255 6,000  Level Atlanta TRACON
Sun 05:21:48 PM 33.9500 -84.3333 284° West 226 260 6,000 -550 Level Atlanta TRACON
Sun 05:22:48 PM 33.9833 -84.4000 301° West 234 269 4,900 -1,000 Descending Atlanta TRACON
Sun 05:23:54 PM 34.0000 -84.4833 284° West 220 253 3,900 -905 Descending Atlanta TRACON
Sun 05:24:54 PM 34.0000 -84.5500 270° West 191 220 3,000 -800 Descending Atlanta TRACON
Sun 05:25:54 PM 34.0000 -84.6000 270° West 161 185 2,300 -600 Descending Atlanta TRACON
Sun 05:26:54 PM 34.0000 -84.6500 270° West 151 174 1,800 -250 Descending Atlanta TRACON
Sun 05:27:54 PM 34.0333 -84.6500 360° North 139 160 1,800  Level Atlanta TRACON

Login

Don't have an account? Register now (free) for customized features, flight alerts, and more!